createdAt,value
2023-04-27T00:03:16.701Z,4.15
2023-04-27T00:08:16.294Z,4.05
2023-04-27T00:13:16.060Z,4.08
2023-04-27T00:18:16.077Z,3.98
2023-04-27T00:23:16.214Z,3.84
2023-04-27T00:28:16.328Z,3.81
2023-04-27T00:33:16.488Z,3.73
2023-04-27T00:38:16.275Z,3.7
2023-04-27T00:43:16.527Z,3.67
2023-04-27T00:48:16.288Z,3.59
2023-04-27T00:53:16.745Z,3.55
2023-04-27T00:58:16.366Z,3.41
2023-04-27T01:03:16.132Z,3.43
2023-04-27T01:08:16.137Z,3.36
2023-04-27T01:13:16.173Z,3.4
2023-04-27T01:18:16.146Z,3.29
2023-04-27T01:23:17.243Z,3.31
2023-04-27T01:28:16.101Z,3.26
2023-04-27T01:33:15.927Z,3.24
2023-04-27T01:38:16.141Z,3.11
2023-04-27T01:43:16.111Z,3.08
2023-04-27T01:48:16.818Z,3.05
2023-04-27T01:53:16.095Z,3.08
2023-04-27T01:58:16.014Z,3.08
2023-04-27T02:03:16.182Z,3.09
2023-04-27T02:08:15.999Z,3.03
2023-04-27T02:13:16.713Z,2.97
2023-04-27T02:18:16.194Z,2.99
2023-04-27T02:23:16.358Z,3.05
2023-04-27T02:28:16.129Z,2.98
2023-04-27T02:33:16.504Z,2.98
2023-04-27T02:38:16.242Z,3.01
2023-04-27T02:43:16.049Z,3.01
2023-04-27T02:48:15.980Z,2.95
2023-04-27T02:53:16.379Z,2.92
2023-04-27T02:58:16.609Z,2.92
2023-04-27T03:03:16.342Z,2.92
2023-04-27T03:08:16.181Z,2.92
2023-04-27T03:13:16.022Z,2.85
2023-04-27T03:18:16.138Z,2.86
2023-04-27T03:23:16.198Z,2.82
2023-04-27T03:28:16.522Z,2.82
2023-04-27T03:33:16.009Z,2.77
2023-04-27T03:38:16.163Z,2.74
2023-04-27T03:43:16.146Z,2.73
2023-04-27T03:48:16.342Z,2.75
2023-04-27T03:53:16.556Z,2.66
2023-04-27T03:58:18.294Z,2.66
2023-04-27T04:03:18.786Z,2.61
2023-04-27T04:08:17.093Z,2.62
2023-04-27T04:13:16.129Z,2.58
2023-04-27T04:18:15.929Z,2.56
2023-04-27T04:23:16.196Z,2.54
2023-04-27T04:28:16.273Z,2.52
2023-04-27T04:33:17.970Z,2.57
2023-04-27T04:38:15.976Z,2.53
2023-04-27T04:43:16.071Z,2.57
2023-04-27T04:48:18.070Z,2.59
2023-04-27T04:53:16.001Z,2.62
2023-04-27T04:58:17.481Z,2.69
2023-04-27T05:03:16.236Z,2.73
2023-04-27T05:08:17.069Z,2.78
2023-04-27T05:13:15.959Z,2.82
2023-04-27T05:18:16.074Z,2.84
2023-04-27T05:23:16.312Z,2.9
2023-04-27T05:28:16.499Z,2.98
2023-04-27T05:33:17.067Z,3.04
2023-04-27T05:38:17.518Z,3.11
2023-04-27T05:43:16.001Z,3.34
2023-04-27T05:48:16.047Z,3.79
2023-04-27T05:53:17.218Z,4.42
2023-04-27T05:58:16.166Z,4.85
2023-04-27T06:03:16.484Z,5.2
2023-04-27T06:08:17.506Z,5.65
2023-04-27T06:13:16.443Z,6.05
2023-04-27T06:18:16.886Z,6.28
2023-04-27T06:23:16.174Z,6.64
2023-04-27T06:28:16.077Z,6.95
2023-04-27T06:33:15.980Z,7.16
2023-04-27T06:38:17.295Z,7.54
2023-04-27T06:43:18.436Z,7.67
2023-04-27T06:48:16.914Z,7.93
2023-04-27T06:53:17.300Z,8.07
2023-04-27T06:58:15.943Z,8.42
2023-04-27T07:03:16.227Z,8.46
2023-04-27T07:08:16.651Z,8.69
2023-04-27T07:13:16.033Z,8.92
2023-04-27T07:18:16.036Z,9.12
2023-04-27T07:23:16.461Z,9.35
2023-04-27T07:28:17.187Z,9.67
2023-04-27T07:33:16.042Z,9.93
2023-04-27T07:38:17.686Z,10.31
2023-04-27T07:43:15.895Z,10.57
2023-04-27T07:48:16.338Z,10.92
2023-04-27T07:53:16.295Z,11.06
2023-04-27T07:58:16.349Z,11.43
2023-04-27T08:03:15.936Z,11.55
2023-04-27T08:08:17.068Z,11.86
2023-04-27T08:13:16.096Z,12.2
2023-04-27T08:18:17.945Z,12.48
2023-04-27T08:23:15.936Z,12.6
2023-04-27T08:28:18.537Z,12.93
2023-04-27T08:33:16.168Z,13.47
2023-04-27T08:38:16.086Z,13.71
2023-04-27T08:43:15.913Z,13.9
2023-04-27T08:48:16.427Z,14.22
2023-04-27T08:53:24.880Z,14.5
2023-04-27T08:58:16.474Z,14.6
2023-04-27T09:03:22.549Z,14.7
2023-04-27T09:08:16.058Z,15.02
2023-04-27T09:13:16.165Z,15.08
2023-04-27T09:18:21.170Z,15.42
2023-04-27T09:23:26.244Z,15.68
2023-04-27T09:28:18.492Z,16.02
2023-04-27T09:35:34.603Z,16.41
2023-04-27T09:40:34.162Z,16.48
2023-04-27T09:45:34.293Z,16.6
2023-04-27T09:50:35.297Z,16.74
2023-04-27T09:55:39.263Z,16.93
2023-04-27T10:00:46.157Z,17.17
2023-04-27T10:05:40.270Z,17.35
2023-04-27T10:10:34.151Z,17.54
2023-04-27T10:15:34.190Z,17.74
2023-04-27T10:20:37.789Z,17.94
2023-04-27T10:25:40.821Z,18.05
2023-04-27T10:30:36.531Z,18.03
2023-04-27T10:35:41.289Z,18.23
2023-04-27T10:40:36.696Z,18.54
2023-04-27T10:45:38.377Z,18.81
2023-04-27T10:50:35.830Z,18.94
2023-04-27T10:55:37.279Z,18.93
2023-04-27T11:00:35.335Z,18.79
2023-04-27T11:05:34.298Z,18.68
2023-04-27T11:10:35.709Z,18.68
2023-04-27T11:15:34.270Z,18.67
2023-04-27T11:20:41.927Z,18.94
2023-04-27T11:25:35.608Z,19.16
2023-04-27T11:30:34.239Z,19.47
2023-04-27T11:35:47.736Z,19.67
2023-04-27T11:40:41.437Z,19.94
2023-04-27T11:45:34.616Z,20.08
2023-04-27T11:50:39.526Z,20.27
2023-04-27T11:55:33.846Z,20.46
2023-04-27T12:00:37.260Z,20.44
2023-04-27T12:05:33.977Z,20.31
2023-04-27T12:10:35.436Z,20.48
2023-04-27T12:15:33.999Z,20.62
2023-04-27T12:20:42.128Z,20.37
2023-04-27T12:25:34.351Z,20.02
2023-04-27T12:30:36.008Z,19.63
2023-04-27T12:35:33.973Z,19.54
2023-04-27T12:40:36.881Z,19.56
2023-04-27T12:45:33.985Z,19.57
2023-04-27T12:50:35.203Z,19.47
2023-04-27T12:55:34.630Z,19.26
2023-04-27T13:00:34.882Z,19.47
2023-04-27T13:05:33.810Z,19.45
2023-04-27T13:10:33.876Z,19.59
2023-04-27T13:15:34.181Z,19.71
2023-04-27T13:20:33.992Z,19.6
2023-04-27T13:25:34.230Z,19.5
2023-04-27T13:30:34.212Z,19.59
2023-04-27T13:35:33.832Z,19.62
2023-04-27T13:40:33.901Z,19.61
2023-04-27T13:45:34.129Z,19.63
2023-04-27T13:50:33.950Z,19.66
2023-04-27T13:55:33.843Z,19.56
2023-04-27T14:00:35.814Z,19.43
2023-04-27T14:05:36.238Z,19.2
2023-04-27T14:10:33.926Z,19.17
2023-04-27T14:15:37.126Z,19.12
2023-04-27T14:20:34.345Z,19.02
2023-04-27T14:25:34.880Z,19.08
2023-04-27T14:30:36.688Z,19.43
2023-04-27T14:35:33.843Z,19.43
2023-04-27T14:40:37.032Z,19.5
2023-04-27T14:45:47.853Z,19.37
2023-04-27T14:50:33.816Z,19.38
2023-04-27T14:55:33.811Z,19.3
2023-04-27T15:00:33.976Z,19.21
2023-04-27T15:05:33.820Z,19.19
2023-04-27T15:10:33.843Z,19.29
2023-04-27T15:15:34.043Z,19.38
2023-04-27T15:20:34.005Z,19.42
2023-04-27T15:25:33.816Z,19.52
2023-04-27T15:30:33.843Z,19.57
2023-04-27T15:35:33.910Z,19.65
2023-04-27T15:40:35.725Z,19.66
2023-04-27T15:45:34.722Z,19.56
2023-04-27T15:50:37.059Z,19.37
2023-04-27T15:55:36.948Z,19.25
2023-04-27T16:00:35.055Z,19.03
2023-04-27T16:05:34.048Z,18.83
2023-04-27T16:10:34.015Z,18.65
2023-04-27T16:15:33.998Z,18.51
2023-04-27T16:20:36.294Z,18.26
2023-04-27T16:25:34.103Z,18.06
2023-04-27T16:30:33.723Z,17.93
2023-04-27T16:35:34.446Z,17.8
2023-04-27T16:40:33.897Z,17.69
2023-04-27T16:45:34.121Z,17.51
2023-04-27T16:50:34.072Z,17.31
2023-04-27T16:55:33.802Z,17.12
2023-04-27T17:00:33.878Z,16.85
2023-04-27T17:05:33.837Z,16.64
2023-04-27T17:10:36.954Z,16.48
2023-04-27T17:15:34.425Z,16.29
2023-04-27T17:20:33.858Z,16.11
2023-04-27T17:25:33.900Z,15.94
2023-04-27T17:30:36.990Z,15.7
2023-04-27T17:35:35.919Z,15.55
2023-04-27T17:40:36.597Z,15.37
2023-04-27T17:45:37.353Z,15.2
2023-04-27T17:50:34.673Z,15.05
2023-04-27T17:55:33.872Z,14.85
2023-04-27T18:00:33.974Z,14.68
2023-04-27T18:05:34.129Z,14.51
2023-04-27T18:10:36.557Z,14.35
2023-04-27T18:15:34.514Z,14.21
2023-04-27T18:20:33.752Z,14.05
2023-04-27T18:25:33.972Z,13.9
2023-04-27T18:30:35.128Z,13.77
2023-04-27T18:35:34.028Z,13.62
2023-04-27T18:40:36.094Z,13.49
2023-04-27T18:45:36.830Z,13.34
2023-04-27T18:50:33.721Z,13.17
2023-04-27T18:55:33.922Z,13
2023-04-27T19:00:33.810Z,12.87
2023-04-27T19:05:34.064Z,12.75
2023-04-27T19:10:33.952Z,12.61
2023-04-27T19:15:33.716Z,12.51
2023-04-27T19:20:36.199Z,12.41
2023-04-27T19:25:33.756Z,12.32
2023-04-27T19:30:33.949Z,12.23
2023-04-27T19:35:33.966Z,12.14
2023-04-27T19:40:36.959Z,12.05
2023-04-27T19:45:33.759Z,11.97
2023-04-27T19:50:33.955Z,11.9
2023-04-27T19:55:34.331Z,11.82
2023-04-27T20:00:34.143Z,11.75
2023-04-27T20:05:35.480Z,11.69
2023-04-27T20:10:34.285Z,11.62
2023-04-27T20:15:33.845Z,11.57
2023-04-27T20:20:33.775Z,11.5
2023-04-27T20:25:33.918Z,11.45
2023-04-27T20:30:33.897Z,11.38
2023-04-27T20:35:33.778Z,11.34
2023-04-27T20:40:35.198Z,11.27
2023-04-27T20:45:34.117Z,11.22
2023-04-27T20:50:33.762Z,11.16
2023-04-27T20:55:34.396Z,11.1
2023-04-27T21:00:33.781Z,11.04
2023-04-27T21:05:33.938Z,10.99
2023-04-27T21:10:35.260Z,10.94
2023-04-27T21:15:33.850Z,10.9
2023-04-27T21:20:33.834Z,10.85
2023-04-27T21:25:35.010Z,10.79
2023-04-27T21:30:37.506Z,10.75
2023-04-27T21:35:34.366Z,10.69
2023-04-27T21:40:33.686Z,10.64
2023-04-27T21:45:37.791Z,10.6
2023-04-27T21:50:33.685Z,10.55
2023-04-27T21:55:34.476Z,10.5
2023-04-27T22:00:33.683Z,10.46
2023-04-27T22:05:37.064Z,10.42
2023-04-27T22:10:33.671Z,10.38
2023-04-27T22:15:33.823Z,10.34
2023-04-27T22:20:33.639Z,10.3
2023-04-27T22:25:33.982Z,10.24
2023-04-27T22:30:33.791Z,10.2
2023-04-27T22:35:33.693Z,10.18
2023-04-27T22:40:34.177Z,10.13
2023-04-27T22:45:34.482Z,10.09
2023-04-27T22:50:33.763Z,10.05
2023-04-27T22:55:33.775Z,10.01
2023-04-27T23:00:33.796Z,9.98
2023-04-27T23:05:33.700Z,9.92
2023-04-27T23:10:34.737Z,9.89
2023-04-27T23:15:33.657Z,9.83
2023-04-27T23:20:33.770Z,9.81
2023-04-27T23:25:35.573Z,9.77
2023-04-27T23:30:34.392Z,9.75
2023-04-27T23:35:35.432Z,9.71
2023-04-27T23:40:33.606Z,9.66
2023-04-27T23:45:33.714Z,9.62
2023-04-27T23:50:33.813Z,9.61
2023-04-27T23:55:34.383Z,9.56
